createdAt,value
2022-08-27T00:01:22.035Z,101836.88
2022-08-27T00:03:48.841Z,101837.97
2022-08-27T00:06:17.580Z,101837.84
2022-08-27T00:08:46.827Z,101834.34
2022-08-27T00:11:14.346Z,101830.03
2022-08-27T00:13:41.360Z,101831.72
2022-08-27T00:16:10.112Z,101825.69
2022-08-27T00:18:38.148Z,101829.53
2022-08-27T00:21:05.074Z,101818.94
2022-08-27T00:23:34.492Z,101824.84
2022-08-27T00:26:01.853Z,101827.63
2022-08-27T00:28:29.573Z,101818.00
2022-08-27T00:30:56.323Z,101818.94
2022-08-27T00:33:23.650Z,101819.88
2022-08-27T00:35:51.251Z,101821.69
2022-08-27T00:38:19.946Z,101819.97
2022-08-27T00:40:46.941Z,101821.09
2022-08-27T00:43:22.630Z,101818.31
2022-08-27T00:45:50.582Z,101814.09
2022-08-27T00:48:18.250Z,101812.41
2022-08-27T00:50:52.596Z,101809.66
2022-08-27T00:53:23.509Z,101811.44
2022-08-27T00:55:55.666Z,101810.50
2022-08-27T00:58:30.745Z,101813.00
2022-08-27T01:00:59.720Z,101815.78
2022-08-27T01:03:27.187Z,101821.09
2022-08-27T01:05:56.794Z,101823.00
2022-08-27T01:08:26.535Z,101823.00
2022-08-27T01:10:55.783Z,101823.84
2022-08-27T01:13:40.795Z,101826.63
2022-08-27T01:16:17.034Z,101827.69
2022-08-27T01:18:44.654Z,101822.53
2022-08-27T01:21:20.423Z,101830.56
2022-08-27T01:24:09.689Z,101827.31
2022-08-27T01:26:36.626Z,101827.09
2022-08-27T01:29:03.857Z,101827.09
2022-08-27T01:31:30.529Z,101828.75
2022-08-27T01:34:02.792Z,101824.31
2022-08-27T01:36:29.952Z,101819.88
2022-08-27T01:38:57.541Z,101824.44
2022-08-27T01:41:24.811Z,101821.78
2022-08-27T01:43:53.070Z,101828.06
2022-08-27T01:46:25.500Z,101820.34
2022-08-27T01:48:52.515Z,101820.34
2022-08-27T01:51:19.479Z,101819.53
2022-08-27T01:53:46.007Z,101813.34
2022-08-27T01:56:12.878Z,101819.63
2022-08-27T01:58:39.938Z,101816.00
2022-08-27T02:01:10.039Z,101819.63
2022-08-27T02:03:37.296Z,101818.53
2022-08-27T02:06:07.016Z,101811.69
2022-08-27T02:08:34.165Z,101811.91
2022-08-27T02:11:01.496Z,101806.84
2022-08-27T02:13:28.679Z,101799.03
2022-08-27T02:15:55.768Z,101804.44
2022-08-27T02:18:22.697Z,101805.53
2022-08-27T02:20:49.401Z,101803.00
2022-08-27T02:23:18.106Z,101802.03
2022-08-27T02:25:47.229Z,101800.34
2022-08-27T02:28:14.179Z,101796.63
2022-08-27T02:30:40.803Z,101798.22
2022-08-27T02:33:07.331Z,101795.78
2022-08-27T02:35:39.004Z,101793.38
2022-08-27T02:38:06.255Z,101799.53
2022-08-27T02:40:32.928Z,101792.41
2022-08-27T02:42:59.544Z,101794.22
2022-08-27T02:45:26.563Z,101796.88
2022-08-27T02:47:54.019Z,101799.75
2022-08-27T02:50:21.042Z,101796.38
2022-08-27T02:52:53.587Z,101795.53
2022-08-27T02:55:28.828Z,101794.47
2022-08-27T02:57:56.546Z,101791.94
2022-08-27T03:00:25.515Z,101791.22
2022-08-27T03:02:52.305Z,101789.53
2022-08-27T03:05:22.370Z,101791.44
2022-08-27T03:07:49.783Z,101790.69
2022-08-27T03:10:19.422Z,101790.84
2022-08-27T03:12:45.907Z,101792.88
2022-08-27T03:15:16.074Z,101779.78
2022-08-27T03:18:01.084Z,101781.91
2022-08-27T03:20:28.284Z,101789.00
2022-08-27T03:22:54.784Z,101788.41
2022-08-27T03:25:21.895Z,101788.75
2022-08-27T03:27:48.468Z,101792.72
2022-08-27T03:30:18.635Z,101789.69
2022-08-27T03:32:46.434Z,101792.88
2022-08-27T03:35:14.111Z,101790.59
2022-08-27T03:37:40.696Z,101778.56
2022-08-27T03:40:08.215Z,101784.94
2022-08-27T03:42:36.104Z,101787.78
2022-08-27T03:45:03.210Z,101786.19
2022-08-27T03:47:30.143Z,101785.69
2022-08-27T03:49:56.594Z,101786.75
2022-08-27T03:52:23.175Z,101783.50
2022-08-27T03:54:49.672Z,101790.47
2022-08-27T03:57:16.180Z,101788.69
2022-08-27T03:59:42.722Z,101793.84
2022-08-27T04:02:09.326Z,101796.50
2022-08-27T04:04:36.107Z,101799.00
2022-08-27T04:07:10.607Z,101796.38
2022-08-27T04:09:38.100Z,101796.38
2022-08-27T04:12:04.796Z,101799.13
2022-08-27T04:14:31.275Z,101800.94
2022-08-27T04:16:58.098Z,101805.41
2022-08-27T04:19:28.088Z,101806.72
2022-08-27T04:22:02.726Z,101805.66
2022-08-27T04:24:31.961Z,101806.63
2022-08-27T04:27:00.138Z,101803.47
2022-08-27T04:29:27.090Z,101803.47
2022-08-27T04:31:54.127Z,101799.97
2022-08-27T04:34:20.666Z,101799.97
2022-08-27T04:36:47.253Z,101795.75
2022-08-27T04:39:14.680Z,101798.19
2022-08-27T04:41:41.592Z,101793.63
2022-08-27T04:44:10.276Z,101793.72
2022-08-27T04:46:40.423Z,101791.81
2022-08-27T04:49:12.697Z,101798.91
2022-08-27T04:51:41.958Z,101801.91
2022-08-27T04:54:10.712Z,101801.03
2022-08-27T04:56:38.048Z,101804.66
2022-08-27T04:59:08.089Z,101803.81
2022-08-27T05:01:36.208Z,101811.63
2022-08-27T05:04:03.427Z,101807.06
2022-08-27T05:06:30.470Z,101807.81
2022-08-27T05:08:58.393Z,101807.81
2022-08-27T05:11:29.679Z,101803.59
2022-08-27T05:13:56.298Z,101805.50
2022-08-27T05:16:23.226Z,101811.00
2022-08-27T05:18:51.654Z,101805.31
2022-08-27T05:21:24.741Z,101804.59
2022-08-27T05:23:52.732Z,101814.00
2022-08-27T05:26:19.423Z,101812.41
2022-08-27T05:28:46.197Z,101817.59
2022-08-27T05:31:14.423Z,101817.13
2022-08-27T05:33:42.507Z,101820.41
2022-08-27T05:36:17.133Z,101827.16
2022-08-27T05:38:44.650Z,101827.78
2022-08-27T05:41:14.495Z,101825.97
2022-08-27T05:43:45.420Z,101828.47
2022-08-27T05:46:17.216Z,101821.19
2022-08-27T05:48:44.126Z,101820.13
2022-08-27T05:51:25.493Z,101823.53
2022-08-27T05:54:08.585Z,101827.97
2022-08-27T05:56:38.259Z,101826.78
2022-08-27T05:59:24.070Z,101824.63
2022-08-27T06:01:52.189Z,101824.16
2022-08-27T06:04:22.729Z,101826.50
2022-08-27T06:06:50.228Z,101828.66
2022-08-27T06:09:19.527Z,101822.19
2022-08-27T06:11:46.509Z,101823.63
2022-08-27T06:14:13.129Z,101825.09
2022-08-27T06:16:41.013Z,101824.75
2022-08-27T06:19:08.843Z,101819.09
2022-08-27T06:21:35.335Z,101820.69
2022-08-27T06:24:02.089Z,101820.31
2022-08-27T06:26:28.689Z,101819.84
2022-08-27T06:28:55.378Z,101825.50
2022-08-27T06:31:27.367Z,101830.72
2022-08-27T06:34:07.090Z,101825.28
2022-08-27T06:36:37.521Z,101819.91
2022-08-27T06:39:04.895Z,101828.22
2022-08-27T06:41:31.571Z,101830.72
2022-08-27T06:43:58.463Z,101823.06
2022-08-27T06:46:27.663Z,101820.22
2022-08-27T06:48:56.479Z,101819.63
2022-08-27T06:51:30.418Z,101822.44
2022-08-27T06:53:59.054Z,101819.19
2022-08-27T06:56:26.101Z,101821.25
2022-08-27T06:58:58.059Z,101825.13
2022-08-27T07:01:36.636Z,101820.16
2022-08-27T07:04:09.263Z,101827.97
2022-08-27T07:06:37.254Z,101830.88
2022-08-27T07:09:04.569Z,101827.19
2022-08-27T07:11:34.279Z,101830.38
2022-08-27T07:14:01.485Z,101832.44
2022-08-27T07:16:29.511Z,101822.88
2022-08-27T07:19:03.811Z,101827.63
2022-08-27T07:21:32.191Z,101822.81
2022-08-27T07:24:04.679Z,101828.53
2022-08-27T07:26:37.052Z,101828.59
2022-08-27T07:29:10.666Z,101827.44
2022-08-27T07:31:38.815Z,101822.88
2022-08-27T07:34:06.931Z,101832.44
2022-08-27T07:36:34.768Z,101831.19
2022-08-27T07:39:02.106Z,101828.34
2022-08-27T07:41:31.812Z,101829.66
2022-08-27T07:44:19.266Z,101836.59
2022-08-27T07:46:48.654Z,101829.13
2022-08-27T07:49:17.404Z,101835.59
2022-08-27T07:51:44.841Z,101837.50
2022-08-27T07:54:11.517Z,101839.53
2022-08-27T07:56:38.071Z,101843.53
2022-08-27T07:59:04.560Z,101846.25
2022-08-27T08:01:31.236Z,101849.47
2022-08-27T08:03:57.771Z,101849.69
2022-08-27T08:06:24.363Z,101847.66
2022-08-27T08:08:50.937Z,101849.78
2022-08-27T08:11:18.484Z,101844.47
2022-08-27T08:13:46.071Z,101852.59
2022-08-27T08:16:13.454Z,101853.25
2022-08-27T08:18:40.883Z,101841.47
2022-08-27T08:21:11.269Z,101856.28
2022-08-27T08:23:38.429Z,101843.94
2022-08-27T08:26:05.934Z,101857.03
2022-08-27T08:28:32.961Z,101851.78
2022-08-27T08:31:00.205Z,101852.94
2022-08-27T08:33:31.617Z,101856.72
2022-08-27T08:36:06.235Z,101852.38
2022-08-27T08:38:33.317Z,101867.53
2022-08-27T08:41:01.458Z,101862.91
2022-08-27T08:43:38.623Z,101870.47
2022-08-27T08:46:22.351Z,101864.31
2022-08-27T08:48:54.159Z,101871.91
2022-08-27T08:51:29.874Z,101859.59
2022-08-27T08:54:03.467Z,101859.31
2022-08-27T08:57:05.940Z,101868.19
2022-08-27T08:59:38.541Z,101862.91
2022-08-27T09:02:12.651Z,101868.81
2022-08-27T09:04:40.513Z,101871.19
2022-08-27T09:07:20.068Z,101870.56
2022-08-27T09:10:20.838Z,101865.38
2022-08-27T09:12:47.372Z,101862.66
2022-08-27T09:15:21.979Z,101867.56
2022-08-27T09:17:48.931Z,101865.13
2022-08-27T09:20:19.897Z,101861.66
2022-08-27T09:22:55.640Z,101865.75
2022-08-27T09:25:33.124Z,101860.16
2022-08-27T09:28:04.294Z,101874.16
2022-08-27T09:30:40.995Z,101868.13
2022-08-27T09:33:07.597Z,101867.25
2022-08-27T09:35:46.472Z,101875.19
2022-08-27T09:38:27.128Z,101876.59
2022-08-27T09:40:56.724Z,101884.19
2022-08-27T09:43:28.279Z,101881.81
2022-08-27T09:46:00.756Z,101881.69
2022-08-27T09:48:33.293Z,101868.97
2022-08-27T09:51:01.717Z,101867.28
2022-08-27T09:53:45.432Z,101868.28
2022-08-27T09:56:32.210Z,101867.69
2022-08-27T09:59:11.996Z,101875.56
2022-08-27T10:02:14.464Z,101864.91
2022-08-27T10:04:50.296Z,101861.09
2022-08-27T10:07:26.419Z,101866.88
2022-08-27T10:10:18.763Z,101866.03
2022-08-27T10:13:10.481Z,101861.53
2022-08-27T10:16:02.124Z,101864.47
2022-08-27T10:19:04.345Z,101864.06
2022-08-27T10:21:46.988Z,101869.78
2022-08-27T10:24:13.484Z,101875.66
2022-08-27T10:26:42.765Z,101868.50
2022-08-27T10:29:25.958Z,101865.59
2022-08-27T10:32:05.479Z,101876.59
2022-08-27T10:34:59.582Z,101873.56
2022-08-27T10:37:41.644Z,101874.84
2022-08-27T10:40:27.794Z,101871.78
2022-08-27T10:43:06.675Z,101868.84
2022-08-27T10:45:47.338Z,101880.44
2022-08-27T10:48:34.394Z,101869.25
2022-08-27T10:51:10.759Z,101871.38
2022-08-27T10:53:50.840Z,101875.53
2022-08-27T10:56:46.536Z,101863.34
2022-08-27T10:59:44.131Z,101854.66
2022-08-27T11:02:28.878Z,101857.22
2022-08-27T11:05:02.039Z,101859.72
2022-08-27T11:07:32.886Z,101856.78
2022-08-27T11:10:08.877Z,101868.78
2022-08-27T11:12:39.934Z,101856.53
2022-08-27T11:15:15.427Z,101864.88
2022-08-27T11:17:45.743Z,101858.09
2022-08-27T11:21:01.714Z,101855.78
2022-08-27T11:23:43.683Z,101853.63
2022-08-27T11:26:10.267Z,101840.75
2022-08-27T11:28:54.196Z,101843.00
2022-08-27T11:31:38.314Z,101848.38
2022-08-27T11:34:13.388Z,101847.47
2022-08-27T11:36:58.419Z,101855.50
2022-08-27T11:40:09.140Z,101857.06
2022-08-27T11:42:43.190Z,101856.50
2022-08-27T11:45:20.464Z,101851.44
2022-08-27T11:48:01.767Z,101864.09
2022-08-27T11:50:31.241Z,101852.88
2022-08-27T11:53:05.875Z,101855.91
2022-08-27T11:55:37.900Z,101851.03
2022-08-27T11:58:08.429Z,101854.09
2022-08-27T12:00:45.667Z,101849.03
2022-08-27T12:03:32.488Z,101847.47
2022-08-27T12:05:58.975Z,101847.00
2022-08-27T12:08:31.959Z,101848.09
2022-08-27T12:11:01.091Z,101846.31
2022-08-27T12:13:45.085Z,101850.44
2022-08-27T12:16:12.689Z,101844.56
2022-08-27T12:19:09.940Z,101842.88
2022-08-27T12:21:39.266Z,101846.94
2022-08-27T12:24:35.131Z,101841.81
2022-08-27T12:27:15.595Z,101841.13
2022-08-27T12:29:56.495Z,101838.06
2022-08-27T12:32:40.180Z,101839.16
2022-08-27T12:35:14.310Z,101840.50
2022-08-27T12:38:06.715Z,101842.50
2022-08-27T12:40:54.010Z,101836.66
2022-08-27T12:43:23.327Z,101838.50
2022-08-27T12:46:00.947Z,101839.19
2022-08-27T12:48:49.704Z,101824.88
2022-08-27T12:51:25.890Z,101827.03
2022-08-27T12:54:06.127Z,101834.13
2022-08-27T12:56:52.302Z,101829.75
2022-08-27T12:59:40.583Z,101827.38
2022-08-27T13:02:24.631Z,101828.13
2022-08-27T13:04:51.609Z,101817.78
2022-08-27T13:07:33.003Z,101819.91
2022-08-27T13:10:14.198Z,101831.13
2022-08-27T13:12:42.723Z,101818.63
2022-08-27T13:15:15.698Z,101812.34
2022-08-27T13:17:47.046Z,101812.13
2022-08-27T13:20:17.760Z,101818.31
2022-08-27T13:22:44.812Z,101823.34
2022-08-27T13:25:33.489Z,101824.19
2022-08-27T13:28:15.436Z,101814.34
2022-08-27T13:30:46.004Z,101818.00
2022-08-27T13:33:30.650Z,101812.19
2022-08-27T13:35:57.659Z,101809.47
2022-08-27T13:38:27.049Z,101818.75
2022-08-27T13:41:01.715Z,101812.19
2022-08-27T13:43:38.284Z,101821.13
2022-08-27T13:46:10.556Z,101820.38
2022-08-27T13:48:41.567Z,101804.81
2022-08-27T13:51:12.867Z,101813.34
2022-08-27T13:54:05.676Z,101824.19
2022-08-27T13:56:35.969Z,101822.94
2022-08-27T13:59:14.162Z,101825.56
2022-08-27T14:01:57.379Z,101817.94
2022-08-27T14:04:28.670Z,101811.13
2022-08-27T14:06:55.326Z,101822.09
2022-08-27T14:09:26.459Z,101824.63
2022-08-27T14:12:02.615Z,101812.59
2022-08-27T14:14:30.683Z,101820.50
2022-08-27T14:17:02.124Z,101819.78
2022-08-27T14:19:33.281Z,101818.66
2022-08-27T14:22:04.310Z,101806.50
2022-08-27T14:24:30.880Z,101826.38
2022-08-27T14:27:05.686Z,101820.06
2022-08-27T14:29:32.249Z,101813.25
2022-08-27T14:31:58.859Z,101820.78
2022-08-27T14:34:25.316Z,101824.09
2022-08-27T14:36:54.903Z,101817.78
2022-08-27T14:39:26.123Z,101816.94
2022-08-27T14:41:53.898Z,101819.91
2022-08-27T14:44:21.713Z,101818.00
2022-08-27T14:46:48.884Z,101819.31
2022-08-27T14:49:25.410Z,101825.03
2022-08-27T14:51:51.968Z,101820.97
2022-08-27T14:54:18.563Z,101831.06
2022-08-27T14:56:45.029Z,101827.09
2022-08-27T14:59:11.636Z,101828.75
2022-08-27T15:01:38.866Z,101824.09
2022-08-27T15:04:06.383Z,101837.56
2022-08-27T15:06:33.641Z,101841.66
2022-08-27T15:09:00.763Z,101837.19
2022-08-27T15:11:31.541Z,101839.25
2022-08-27T15:14:00.194Z,101840.41
2022-08-27T15:16:32.520Z,101837.31
2022-08-27T15:19:01.087Z,101838.84
2022-08-27T15:21:30.340Z,101843.59
2022-08-27T15:24:10.550Z,101844.13
2022-08-27T15:26:37.174Z,101844.84
2022-08-27T15:29:06.643Z,101853.19
2022-08-27T15:31:34.244Z,101851.06
2022-08-27T15:34:00.899Z,101848.09
2022-08-27T15:36:27.450Z,101853.38
2022-08-27T15:38:55.201Z,101854.19
2022-08-27T15:41:24.257Z,101845.31
2022-08-27T15:43:52.685Z,101856.28
2022-08-27T15:46:19.234Z,101861.09
2022-08-27T15:48:45.962Z,101850.06
2022-08-27T15:51:13.604Z,101857.19
2022-08-27T15:53:41.868Z,101850.13
2022-08-27T15:56:08.548Z,101848.22
2022-08-27T15:58:36.822Z,101848.31
2022-08-27T16:01:11.082Z,101844.59
2022-08-27T16:03:38.955Z,101850.47
2022-08-27T16:06:06.207Z,101847.94
2022-08-27T16:08:36.801Z,101845.56
2022-08-27T16:11:09.365Z,101842.19
2022-08-27T16:13:36.672Z,101836.50
2022-08-27T16:16:04.589Z,101842.28
2022-08-27T16:18:33.631Z,101850.47
2022-08-27T16:21:02.141Z,101857.03
2022-08-27T16:23:30.128Z,101854.81
2022-08-27T16:25:57.256Z,101853.41
2022-08-27T16:28:25.090Z,101855.94
2022-08-27T16:30:54.488Z,101855.91
2022-08-27T16:33:23.365Z,101860.41
2022-08-27T16:35:50.649Z,101855.78
2022-08-27T16:38:17.692Z,101862.09
2022-08-27T16:40:48.163Z,101850.75
2022-08-27T16:43:17.879Z,101859.72
2022-08-27T16:45:44.297Z,101857.78
2022-08-27T16:48:29.677Z,101852.31
2022-08-27T16:50:58.571Z,101867.56
2022-08-27T16:53:25.377Z,101865.16
2022-08-27T16:55:52.001Z,101853.56
2022-08-27T16:58:22.914Z,101857.63
2022-08-27T17:00:53.083Z,101855.97
2022-08-27T17:03:21.757Z,101857.34
2022-08-27T17:05:50.809Z,101856.78
2022-08-27T17:08:19.335Z,101860.28
2022-08-27T17:10:50.900Z,101860.56
2022-08-27T17:13:21.316Z,101862.91
2022-08-27T17:15:56.174Z,101862.75
2022-08-27T17:18:27.606Z,101865.38
2022-08-27T17:20:55.802Z,101866.50
2022-08-27T17:23:37.199Z,101866.50
2022-08-27T17:26:06.232Z,101861.16
2022-08-27T17:28:33.637Z,101863.97
2022-08-27T17:31:01.953Z,101862.53
2022-08-27T17:33:38.995Z,101868.28
2022-08-27T17:36:06.653Z,101863.69
2022-08-27T17:38:33.960Z,101865.63
2022-08-27T17:41:08.618Z,101862.38
2022-08-27T17:43:35.071Z,101869.19
2022-08-27T17:46:02.326Z,101874.78
2022-08-27T17:48:28.830Z,101870.72
2022-08-27T17:50:55.352Z,101869.41
2022-08-27T17:53:21.820Z,101865.19
2022-08-27T17:55:48.491Z,101876.09
2022-08-27T17:58:15.030Z,101870.34
2022-08-27T18:00:44.935Z,101869.88
2022-08-27T18:03:17.835Z,101875.47
2022-08-27T18:05:46.126Z,101872.22
2022-08-27T18:08:13.815Z,101876.97
2022-08-27T18:10:41.904Z,101880.81
2022-08-27T18:13:09.812Z,101879.53
2022-08-27T18:15:39.984Z,101886.22
2022-08-27T18:18:07.995Z,101882.84
2022-08-27T18:20:36.696Z,101890.38
2022-08-27T18:23:08.056Z,101897.88
2022-08-27T18:25:37.287Z,101894.03
2022-08-27T18:28:06.658Z,101897.22
2022-08-27T18:30:34.342Z,101900.84
2022-08-27T18:33:01.956Z,101910.28
2022-08-27T18:35:31.328Z,101903.66
2022-08-27T18:37:58.206Z,101904.41
2022-08-27T18:40:27.326Z,101922.28
2022-08-27T18:42:54.245Z,101924.34
2022-08-27T18:45:25.972Z,101920.38
2022-08-27T18:47:58.324Z,101923.38
2022-08-27T18:50:25.487Z,101927.25
2022-08-27T18:52:54.749Z,101934.75
2022-08-27T18:55:25.622Z,101933.41
2022-08-27T18:57:52.201Z,101937.53
2022-08-27T19:00:20.033Z,101943.22
2022-08-27T19:02:52.041Z,101944.28
2022-08-27T19:05:22.980Z,101942.97
2022-08-27T19:07:49.415Z,101938.88
2022-08-27T19:10:16.939Z,101941.03
2022-08-27T19:12:43.672Z,101949.22
2022-08-27T19:15:11.964Z,101952.97
2022-08-27T19:17:40.077Z,101955.25
2022-08-27T19:20:07.660Z,101952.72
2022-08-27T19:22:34.164Z,101958.38
2022-08-27T19:25:00.766Z,101955.00
2022-08-27T19:27:29.919Z,101965.25
2022-08-27T19:29:56.420Z,101968.25
2022-08-27T19:32:23.548Z,101973.78
2022-08-27T19:34:49.998Z,101971.50
2022-08-27T19:37:24.215Z,101971.13
2022-08-27T19:39:51.483Z,101974.72
2022-08-27T19:42:18.799Z,101975.94
2022-08-27T19:44:45.487Z,101983.25
2022-08-27T19:47:13.713Z,101986.28
2022-08-27T19:49:41.799Z,101982.25
2022-08-27T19:52:08.757Z,101985.03
2022-08-27T19:54:40.083Z,101991.72
2022-08-27T19:57:18.747Z,101988.44
2022-08-27T19:59:45.609Z,101999.28
2022-08-27T20:02:12.521Z,101998.44
2022-08-27T20:04:56.038Z,102004.09
2022-08-27T20:07:26.727Z,102000.06
2022-08-27T20:09:53.199Z,101995.34
2022-08-27T20:12:21.741Z,101998.34
2022-08-27T20:14:48.328Z,102003.88
2022-08-27T20:17:18.570Z,101998.06
2022-08-27T20:19:45.179Z,102008.16
2022-08-27T20:22:13.014Z,102012.59
2022-08-27T20:24:39.425Z,101997.03
2022-08-27T20:27:05.916Z,102007.13
2022-08-27T20:29:33.055Z,102003.97
2022-08-27T20:32:00.186Z,102002.38
2022-08-27T20:34:29.331Z,102007.16
2022-08-27T20:36:56.038Z,101995.84
2022-08-27T20:39:22.641Z,101994.38
2022-08-27T20:41:49.027Z,101995.44
2022-08-27T20:44:17.017Z,101994.94
2022-08-27T20:46:43.682Z,102005.84
2022-08-27T20:49:15.432Z,102004.28
2022-08-27T20:52:02.300Z,102006.25
2022-08-27T20:54:28.488Z,102004.97
2022-08-27T20:56:55.104Z,102003.41
2022-08-27T20:59:40.809Z,102017.56
2022-08-27T21:02:09.783Z,102016.94
2022-08-27T21:04:39.262Z,102018.00
2022-08-27T21:07:06.319Z,102026.06
2022-08-27T21:09:33.356Z,102020.97
2022-08-27T21:12:00.120Z,102023.94
2022-08-27T21:14:27.806Z,102023.31
2022-08-27T21:16:54.608Z,102023.41
2022-08-27T21:19:21.704Z,102014.22
2022-08-27T21:21:48.719Z,102013.59
2022-08-27T21:24:15.265Z,102029.56
2022-08-27T21:26:42.708Z,102015.81
2022-08-27T21:29:09.258Z,102022.16
2022-08-27T21:31:35.806Z,102011.91
2022-08-27T21:34:02.648Z,102021.84
2022-08-27T21:36:29.211Z,102016.66
2022-08-27T21:38:59.017Z,102015.09
2022-08-27T21:41:25.799Z,102017.94
2022-08-27T21:43:53.111Z,102023.63
2022-08-27T21:46:20.744Z,102033.44
2022-08-27T21:48:48.822Z,102029.19
2022-08-27T21:51:26.874Z,102032.06
2022-08-27T21:53:53.465Z,102029.63
2022-08-27T21:56:21.029Z,102026.44
2022-08-27T21:58:47.676Z,102032.03
2022-08-27T22:01:15.218Z,102030.44
2022-08-27T22:03:46.906Z,102039.31
2022-08-27T22:06:14.879Z,102038.69
2022-08-27T22:08:43.638Z,102035.41
2022-08-27T22:11:11.577Z,102041.81
2022-08-27T22:13:39.308Z,102037.59
2022-08-27T22:16:06.075Z,102044.72
2022-08-27T22:18:34.744Z,102048.41
2022-08-27T22:21:02.837Z,102045.97
2022-08-27T22:23:29.881Z,102045.97
2022-08-27T22:25:57.017Z,102053.34
2022-08-27T22:28:23.693Z,102050.16
2022-08-27T22:30:50.212Z,102042.34
2022-08-27T22:33:17.754Z,102038.00
2022-08-27T22:35:44.485Z,102040.94
2022-08-27T22:38:11.506Z,102047.38
2022-08-27T22:40:38.979Z,102045.97
2022-08-27T22:43:06.191Z,102039.97
2022-08-27T22:45:34.444Z,102046.16
2022-08-27T22:48:01.010Z,102048.06
2022-08-27T22:50:27.622Z,102051.75
2022-08-27T22:52:54.541Z,102057.19
2022-08-27T22:55:22.894Z,102057.59
2022-08-27T22:57:52.409Z,102054.22
2022-08-27T23:00:24.225Z,102057.59
2022-08-27T23:02:50.730Z,102058.72
2022-08-27T23:05:17.416Z,102060.72
2022-08-27T23:07:44.799Z,102050.47
2022-08-27T23:10:14.680Z,102061.09
2022-08-27T23:12:41.195Z,102063.84
2022-08-27T23:15:11.759Z,102063.19
2022-08-27T23:17:38.231Z,102061.59
2022-08-27T23:20:07.103Z,102066.22
2022-08-27T23:22:34.029Z,102065.56
2022-08-27T23:25:19.144Z,102068.56
2022-08-27T23:27:45.573Z,102063.28
2022-08-27T23:30:15.031Z,102064.31
2022-08-27T23:32:46.432Z,102060.06
2022-08-27T23:35:22.535Z,102059.34
2022-08-27T23:37:50.080Z,102064.69
2022-08-27T23:40:17.519Z,102062.44
2022-08-27T23:42:45.228Z,102073.06
2022-08-27T23:45:15.180Z,102066.31
2022-08-27T23:47:41.912Z,102073.25
2022-08-27T23:50:09.499Z,102074.28
2022-08-27T23:52:37.045Z,102064.81
2022-08-27T23:55:05.448Z,102068.34
2022-08-27T23:57:32.317Z,102070.16
2022-08-27T23:59:59.063Z,102075.53
